createdAt,value
2019-03-27T00:01:55.218Z,1.25
2019-03-27T00:04:24.128Z,1.20
2019-03-27T00:06:53.033Z,1.22
2019-03-27T00:09:21.944Z,1.30
2019-03-27T00:11:50.848Z,1.70
2019-03-27T00:14:19.756Z,2.33
2019-03-27T00:16:48.579Z,2.47
2019-03-27T00:19:17.594Z,2.70
2019-03-27T00:21:46.583Z,3.02
2019-03-27T00:24:15.489Z,3.27
2019-03-27T00:26:44.463Z,5.35
2019-03-27T00:29:13.407Z,5.22
2019-03-27T00:31:42.314Z,5.42
2019-03-27T00:34:11.225Z,7.65
2019-03-27T00:36:40.130Z,9.23
2019-03-27T00:39:09.049Z,11.53
2019-03-27T00:41:37.943Z,11.65
2019-03-27T00:44:06.852Z,12.85
2019-03-27T00:46:35.760Z,15.08
2019-03-27T00:49:04.770Z,15.70
2019-03-27T00:51:33.783Z,14.90
2019-03-27T00:54:02.694Z,13.20
2019-03-27T00:56:31.699Z,10.18
2019-03-27T00:59:00.608Z,7.50
2019-03-27T01:01:29.513Z,4.95
2019-03-27T01:03:58.428Z,4.97
2019-03-27T01:06:27.329Z,4.78
2019-03-27T01:08:56.236Z,4.60
2019-03-27T01:11:25.143Z,4.00
2019-03-27T01:13:54.255Z,4.47
2019-03-27T01:16:23.166Z,5.22
2019-03-27T01:18:52.059Z,5.80
2019-03-27T01:21:20.978Z,7.42
2019-03-27T01:23:49.889Z,9.70
2019-03-27T01:26:18.796Z,9.83
2019-03-27T01:28:47.690Z,10.10
2019-03-27T01:31:16.816Z,9.58
2019-03-27T01:33:45.722Z,9.43
2019-03-27T01:36:14.632Z,9.50
2019-03-27T01:38:43.536Z,9.73
2019-03-27T01:41:12.444Z,7.78
2019-03-27T01:43:41.352Z,6.97
2019-03-27T01:46:10.262Z,6.20
2019-03-27T01:48:39.167Z,5.30
2019-03-27T01:51:08.180Z,4.87
2019-03-27T01:53:37.083Z,4.22
2019-03-27T01:56:05.992Z,3.30
2019-03-27T01:58:34.900Z,2.95
2019-03-27T02:01:04.217Z,3.37
2019-03-27T02:03:33.061Z,2.90
2019-03-27T02:06:02.031Z,3.05
2019-03-27T02:08:30.940Z,2.72
2019-03-27T02:10:59.853Z,2.75
2019-03-27T02:13:28.754Z,2.50
2019-03-27T02:16:06.791Z,2.60
2019-03-27T02:18:28.315Z,2.77
2019-03-27T02:20:57.217Z,2.50
2019-03-27T02:23:26.125Z,2.25
2019-03-27T02:25:55.033Z,2.50
2019-03-27T02:28:23.876Z,2.10
2019-03-27T02:30:52.848Z,2.40
2019-03-27T02:33:21.759Z,2.35
2019-03-27T02:35:50.663Z,2.05
2019-03-27T02:38:19.572Z,2.25
2019-03-27T02:40:48.480Z,2.20
2019-03-27T02:43:17.491Z,2.37
2019-03-27T02:45:46.398Z,2.30
2019-03-27T02:48:15.407Z,2.87
2019-03-27T02:50:44.415Z,3.00
2019-03-27T02:53:13.310Z,3.15
2019-03-27T02:55:42.175Z,3.58
2019-03-27T02:58:11.139Z,3.70
2019-03-27T03:00:40.047Z,3.83
2019-03-27T03:03:08.955Z,3.22
2019-03-27T03:05:37.874Z,2.87
2019-03-27T03:08:06.770Z,3.12
2019-03-27T03:10:35.883Z,3.35
2019-03-27T03:13:04.797Z,3.45
2019-03-27T03:15:33.700Z,3.90
2019-03-27T03:18:02.721Z,3.40
2019-03-27T03:20:31.616Z,4.17
2019-03-27T03:23:00.522Z,4.28
2019-03-27T03:25:29.540Z,4.28
2019-03-27T03:27:58.646Z,4.22
2019-03-27T03:30:27.561Z,3.83
2019-03-27T03:32:56.463Z,4.15
2019-03-27T03:35:25.369Z,3.87
2019-03-27T03:37:54.276Z,3.92
2019-03-27T03:40:23.285Z,4.45
2019-03-27T03:42:52.193Z,4.58
2019-03-27T03:45:21.108Z,5.22
2019-03-27T03:47:50.012Z,5.50
2019-03-27T03:50:34.063Z,5.05
2019-03-27T03:53:03.078Z,3.92
2019-03-27T03:55:33.807Z,3.90
2019-03-27T03:58:02.934Z,4.78
2019-03-27T04:00:33.371Z,4.65
2019-03-27T04:03:04.240Z,4.72
2019-03-27T04:05:33.243Z,4.33
2019-03-27T04:08:02.147Z,4.53
2019-03-27T04:10:31.157Z,4.58
2019-03-27T04:13:00.174Z,4.03
2019-03-27T04:15:29.073Z,3.92
2019-03-27T04:17:57.984Z,3.58
2019-03-27T04:20:26.995Z,3.62
2019-03-27T04:22:55.917Z,3.55
2019-03-27T04:25:24.807Z,3.85
2019-03-27T04:27:53.715Z,3.42
2019-03-27T04:30:22.621Z,4.03
2019-03-27T04:32:51.631Z,5.47
2019-03-27T04:35:20.548Z,6.55
2019-03-27T04:37:49.561Z,9.55
2019-03-27T04:40:18.563Z,11.50
2019-03-27T04:42:47.469Z,10.85
2019-03-27T04:45:18.204Z,11.65
2019-03-27T04:47:47.124Z,10.95
2019-03-27T04:50:16.013Z,9.38
2019-03-27T04:52:45.149Z,8.20
2019-03-27T04:55:15.034Z,6.45
2019-03-27T04:57:43.982Z,7.53
2019-03-27T05:00:13.104Z,7.12
2019-03-27T05:02:42.004Z,6.47
2019-03-27T05:05:11.114Z,6.10
2019-03-27T05:07:41.097Z,7.05
2019-03-27T05:10:10.160Z,6.58
2019-03-27T05:12:39.106Z,4.15
2019-03-27T05:15:08.601Z,3.60
2019-03-27T05:17:45.662Z,3.85
2019-03-27T05:20:09.476Z,4.08
2019-03-27T05:22:38.379Z,4.28
2019-03-27T05:25:08.088Z,5.22
2019-03-27T05:27:37.014Z,5.22
2019-03-27T05:30:07.160Z,5.60
2019-03-27T05:32:36.059Z,5.53
2019-03-27T05:35:06.802Z,5.58
2019-03-27T05:37:36.956Z,4.87
2019-03-27T05:40:07.534Z,4.67
2019-03-27T05:42:36.506Z,4.50
2019-03-27T05:45:05.942Z,4.72
2019-03-27T05:47:34.926Z,5.15
2019-03-27T05:50:03.943Z,5.60
2019-03-27T05:52:32.891Z,6.60
2019-03-27T05:55:01.967Z,5.37
2019-03-27T05:57:30.866Z,5.47
2019-03-27T05:59:59.859Z,5.72
2019-03-27T06:02:28.766Z,4.78
2019-03-27T06:04:57.689Z,4.58
2019-03-27T06:07:26.586Z,4.62
2019-03-27T06:09:55.505Z,4.00
2019-03-27T06:12:24.309Z,3.87
2019-03-27T06:14:55.513Z,4.40
2019-03-27T06:17:24.480Z,3.98
2019-03-27T06:19:53.346Z,4.08
2019-03-27T06:22:22.299Z,3.65
2019-03-27T06:24:51.202Z,3.42
2019-03-27T06:27:20.212Z,4.28
2019-03-27T06:29:49.108Z,7.12
2019-03-27T06:32:18.204Z,8.05
2019-03-27T06:34:47.244Z,8.55
2019-03-27T06:37:16.150Z,7.05
2019-03-27T06:39:45.059Z,6.20
2019-03-27T06:42:13.965Z,6.22
2019-03-27T06:44:42.873Z,7.08
2019-03-27T06:47:11.822Z,7.30
2019-03-27T06:49:40.698Z,6.95
2019-03-27T06:52:09.583Z,6.60
2019-03-27T06:54:38.503Z,6.00
2019-03-27T06:57:07.414Z,6.33
2019-03-27T06:59:36.319Z,5.85
2019-03-27T07:02:05.227Z,5.17
2019-03-27T07:04:34.143Z,7.83
2019-03-27T07:07:03.047Z,7.97
2019-03-27T07:09:31.952Z,5.75
2019-03-27T07:12:00.857Z,6.10
2019-03-27T07:14:29.766Z,7.37
2019-03-27T07:16:58.778Z,11.03
2019-03-27T07:19:27.686Z,9.48
2019-03-27T07:21:56.592Z,8.38
2019-03-27T07:24:25.483Z,10.75
2019-03-27T07:26:54.412Z,11.35
2019-03-27T07:29:23.314Z,10.25
2019-03-27T07:31:52.327Z,12.47
2019-03-27T07:34:21.319Z,9.68
2019-03-27T07:36:52.147Z,4.70
2019-03-27T07:39:20.788Z,3.95
2019-03-27T07:41:49.695Z,5.08
2019-03-27T07:44:18.705Z,7.72
2019-03-27T07:46:47.614Z,7.50
2019-03-27T07:49:16.526Z,9.18
2019-03-27T07:51:45.434Z,9.25
2019-03-27T07:54:14.416Z,5.22
2019-03-27T07:56:43.346Z,5.37
2019-03-27T07:59:12.232Z,7.10
2019-03-27T08:01:41.163Z,13.28
2019-03-27T08:04:10.072Z,15.65
2019-03-27T08:06:39.082Z,15.68
2019-03-27T08:09:08.391Z,14.18
2019-03-27T08:11:37.461Z,14.35
2019-03-27T08:14:06.519Z,8.38
2019-03-27T08:16:35.429Z,6.58
2019-03-27T08:19:07.834Z,7.20
2019-03-27T08:21:34.966Z,7.03
2019-03-27T08:24:04.027Z,5.40
2019-03-27T08:26:32.999Z,3.80
2019-03-27T08:29:01.912Z,3.60
2019-03-27T08:31:31.946Z,3.70
2019-03-27T08:34:00.852Z,3.95
2019-03-27T08:36:29.741Z,3.20
2019-03-27T08:38:58.667Z,3.58
2019-03-27T08:41:27.573Z,4.67
2019-03-27T08:43:56.584Z,6.62
2019-03-27T08:46:25.597Z,6.78
2019-03-27T08:48:54.605Z,5.60
2019-03-27T08:51:23.513Z,12.23
2019-03-27T08:53:52.523Z,6.08
2019-03-27T08:56:21.353Z,3.20
2019-03-27T08:58:50.242Z,1.90
2019-03-27T09:01:19.150Z,1.27
2019-03-27T09:03:48.053Z,1.15
2019-03-27T09:06:17.062Z,1.45
2019-03-27T09:08:46.175Z,1.40
2019-03-27T09:11:15.015Z,1.42
2019-03-27T09:13:44.093Z,3.90
2019-03-27T09:16:13.104Z,5.40
2019-03-27T09:18:42.009Z,6.28
2019-03-27T09:21:11.019Z,5.50
2019-03-27T09:23:40.030Z,6.95
2019-03-27T09:26:09.024Z,7.83
2019-03-27T09:28:37.997Z,6.40
2019-03-27T09:31:06.956Z,7.42
2019-03-27T09:33:35.865Z,9.13
2019-03-27T09:36:05.094Z,6.10
2019-03-27T09:38:34.295Z,4.80
2019-03-27T09:41:03.201Z,4.80
2019-03-27T09:43:32.108Z,4.15
2019-03-27T09:46:01.016Z,3.30
2019-03-27T09:48:29.925Z,2.87
2019-03-27T09:50:58.834Z,3.65
2019-03-27T09:53:27.850Z,5.00
2019-03-27T09:55:56.752Z,5.40
2019-03-27T09:58:25.950Z,3.52
2019-03-27T10:00:56.300Z,4.42
2019-03-27T10:03:25.213Z,4.30
2019-03-27T10:05:54.123Z,5.67
2019-03-27T10:08:23.131Z,5.03
2019-03-27T10:10:52.042Z,7.00
2019-03-27T10:13:20.946Z,8.40
2019-03-27T10:15:49.858Z,6.85
2019-03-27T10:18:18.762Z,4.72
2019-03-27T10:20:47.670Z,6.78
2019-03-27T10:23:16.576Z,5.60
2019-03-27T10:25:45.491Z,2.90
2019-03-27T10:28:14.495Z,2.50
2019-03-27T10:30:43.405Z,2.37
2019-03-27T10:33:15.145Z,2.92
2019-03-27T10:35:42.858Z,2.72
2019-03-27T10:38:11.771Z,4.67
2019-03-27T10:40:40.670Z,6.05
2019-03-27T10:43:09.578Z,6.42
2019-03-27T10:45:38.488Z,6.08
2019-03-27T10:48:07.496Z,7.97
2019-03-27T10:50:36.404Z,9.40
2019-03-27T10:53:05.314Z,9.30
2019-03-27T10:55:34.613Z,8.10
2019-03-27T10:58:03.774Z,6.80
2019-03-27T11:00:32.752Z,6.35
2019-03-27T11:03:01.659Z,7.05
2019-03-27T11:05:30.570Z,7.90
2019-03-27T11:07:59.475Z,8.28
2019-03-27T11:10:28.388Z,8.88
2019-03-27T11:12:57.290Z,6.78
2019-03-27T11:15:26.201Z,4.90
2019-03-27T11:17:55.217Z,5.65
2019-03-27T11:20:30.885Z,6.15
2019-03-27T11:25:23.364Z,5.05
2019-03-27T11:27:52.273Z,6.42
2019-03-27T11:30:24.252Z,7.55
2019-03-27T11:32:53.158Z,8.93
2019-03-27T11:35:22.045Z,8.05
2019-03-27T11:37:50.976Z,7.75
2019-03-27T11:40:19.882Z,7.05
2019-03-27T11:42:48.789Z,7.72
2019-03-27T11:45:17.585Z,8.08
2019-03-27T11:47:46.501Z,8.38
2019-03-27T11:50:15.410Z,8.10
2019-03-27T11:52:44.418Z,7.90
2019-03-27T11:55:13.532Z,8.10
2019-03-27T11:57:42.440Z,7.22
2019-03-27T12:00:11.915Z,6.70
2019-03-27T12:02:40.874Z,6.78
2019-03-27T12:05:10.173Z,8.30
2019-03-27T12:07:39.055Z,7.10
2019-03-27T12:10:08.515Z,7.30
2019-03-27T12:12:37.422Z,7.87
2019-03-27T12:15:08.054Z,6.65
2019-03-27T12:17:36.977Z,7.80
2019-03-27T12:20:07.137Z,8.35
2019-03-27T12:22:36.333Z,8.25
2019-03-27T12:25:06.525Z,9.58
2019-03-27T12:27:35.371Z,11.18
2019-03-27T12:30:08.272Z,9.58
2019-03-27T12:32:37.186Z,8.93
2019-03-27T12:35:06.929Z,8.53
2019-03-27T12:37:35.814Z,7.60
2019-03-27T12:40:11.510Z,6.62
2019-03-27T12:42:36.187Z,5.00
2019-03-27T12:45:06.738Z,4.85
2019-03-27T12:47:35.641Z,4.37
2019-03-27T12:50:07.059Z,2.90
2019-03-27T12:52:36.015Z,3.42
2019-03-27T12:55:06.241Z,3.80
2019-03-27T12:57:35.365Z,3.30
2019-03-27T13:00:06.220Z,3.47
2019-03-27T13:02:35.123Z,3.10
2019-03-27T13:05:05.466Z,2.42
2019-03-27T13:07:34.357Z,2.20
2019-03-27T13:10:03.467Z,1.17
2019-03-27T13:12:32.395Z,1.80
2019-03-27T13:15:01.285Z,1.75
2019-03-27T13:17:30.212Z,1.80
2019-03-27T13:19:59.119Z,1.45
2019-03-27T13:22:28.126Z,1.05
2019-03-27T13:24:57.034Z,2.80
2019-03-27T13:27:26.167Z,2.80
2019-03-27T13:29:55.053Z,3.55
2019-03-27T13:32:23.959Z,4.28
2019-03-27T13:34:52.871Z,4.20
2019-03-27T13:37:21.756Z,5.03
2019-03-27T13:39:50.685Z,6.20
2019-03-27T13:42:19.591Z,4.75
2019-03-27T13:44:48.503Z,3.60
2019-03-27T13:47:17.616Z,3.85
2019-03-27T13:49:46.622Z,3.98
2019-03-27T13:52:15.632Z,4.60
2019-03-27T13:54:44.540Z,4.53
2019-03-27T13:57:14.574Z,4.62
2019-03-27T13:59:43.487Z,5.25
2019-03-27T14:02:13.401Z,5.30
2019-03-27T14:04:42.424Z,5.30
2019-03-27T14:07:11.431Z,4.97
2019-03-27T14:09:40.339Z,4.37
2019-03-27T14:12:09.246Z,4.33
2019-03-27T14:14:49.698Z,4.62
2019-03-27T14:17:08.663Z,4.53
2019-03-27T14:19:37.608Z,3.45
2019-03-27T14:22:06.597Z,3.00
2019-03-27T14:24:35.528Z,3.92
2019-03-27T14:27:04.413Z,3.92
2019-03-27T14:29:33.341Z,4.20
2019-03-27T14:32:02.251Z,3.60
2019-03-27T14:34:31.157Z,3.67
2019-03-27T14:37:00.073Z,3.58
2019-03-27T14:39:28.985Z,3.40
2019-03-27T14:41:57.880Z,3.37
2019-03-27T14:44:26.713Z,2.50
2019-03-27T14:46:55.701Z,2.60
2019-03-27T14:49:24.602Z,2.62
2019-03-27T14:52:07.334Z,2.52
2019-03-27T14:54:24.056Z,2.80
2019-03-27T14:56:52.964Z,2.85
2019-03-27T14:59:21.860Z,2.85
2019-03-27T15:01:50.785Z,3.83
2019-03-27T15:04:19.690Z,2.33
2019-03-27T15:06:48.598Z,3.05
2019-03-27T15:09:17.502Z,2.65
2019-03-27T15:11:46.512Z,3.42
2019-03-27T15:14:15.420Z,2.02
2019-03-27T15:16:44.330Z,2.10
2019-03-27T15:19:13.344Z,2.35
2019-03-27T15:21:42.249Z,2.00
2019-03-27T15:24:11.153Z,1.80
2019-03-27T15:26:40.163Z,1.70
2019-03-27T15:29:09.076Z,1.87
2019-03-27T15:31:37.991Z,2.33
2019-03-27T15:34:06.889Z,1.87
2019-03-27T15:36:35.716Z,2.05
2019-03-27T15:39:07.056Z,2.08
2019-03-27T15:41:35.966Z,2.12
2019-03-27T15:44:04.873Z,1.80
2019-03-27T15:46:33.785Z,2.00
2019-03-27T15:49:02.686Z,2.65
2019-03-27T15:51:31.595Z,3.00
2019-03-27T15:54:00.504Z,3.62
2019-03-27T15:56:29.414Z,3.08
2019-03-27T15:58:58.321Z,3.37
2019-03-27T16:01:27.169Z,3.60
2019-03-27T16:03:56.144Z,4.10
2019-03-27T16:06:25.043Z,3.67
2019-03-27T16:08:53.936Z,4.25
2019-03-27T16:11:22.858Z,4.87
2019-03-27T16:13:51.764Z,4.25
2019-03-27T16:16:20.879Z,4.45
2019-03-27T16:18:49.789Z,4.22
2019-03-27T16:21:18.694Z,5.40
2019-03-27T16:23:47.601Z,5.05
2019-03-27T16:26:16.514Z,5.85
2019-03-27T16:28:45.380Z,7.08
2019-03-27T16:31:14.326Z,8.00
2019-03-27T16:33:43.235Z,6.15
2019-03-27T16:36:12.143Z,5.20
2019-03-27T16:38:41.050Z,2.72
2019-03-27T16:41:09.954Z,3.83
2019-03-27T16:43:38.863Z,3.95
2019-03-27T16:46:08.005Z,4.65
2019-03-27T16:48:37.093Z,4.53
2019-03-27T16:51:05.998Z,3.67
2019-03-27T16:53:35.119Z,3.80
2019-03-27T16:56:04.016Z,4.60
2019-03-27T16:58:33.025Z,4.50
2019-03-27T17:01:01.916Z,3.80
2019-03-27T17:03:30.947Z,3.77
2019-03-27T17:05:59.852Z,4.40
2019-03-27T17:08:28.743Z,3.95
2019-03-27T17:10:57.669Z,4.25
2019-03-27T17:13:26.681Z,4.80
2019-03-27T17:15:55.591Z,4.78
2019-03-27T17:18:24.497Z,5.85
2019-03-27T17:20:53.335Z,6.28
2019-03-27T17:23:22.517Z,6.40
2019-03-27T17:25:53.191Z,6.00
2019-03-27T17:28:21.971Z,5.95
2019-03-27T17:30:50.879Z,5.03
2019-03-27T17:33:19.783Z,4.95
2019-03-27T17:35:48.895Z,4.33
2019-03-27T17:38:18.007Z,4.55
2019-03-27T17:40:46.997Z,7.50
2019-03-27T17:43:15.924Z,7.60
2019-03-27T17:45:46.690Z,13.05
2019-03-27T17:48:15.376Z,20.32
2019-03-27T17:50:44.386Z,22.85
2019-03-27T17:53:13.283Z,24.52
2019-03-27T17:55:42.412Z,21.07
2019-03-27T17:58:11.437Z,19.52
2019-03-27T18:00:45.239Z,13.13
2019-03-27T18:03:14.143Z,9.93
2019-03-27T18:05:43.162Z,11.30
2019-03-27T18:08:12.164Z,10.70
2019-03-27T18:10:41.073Z,8.68
2019-03-27T18:13:09.984Z,8.00
2019-03-27T18:15:38.994Z,8.33
2019-03-27T18:18:07.881Z,8.43
2019-03-27T18:20:36.807Z,7.60
2019-03-27T18:23:05.787Z,8.23
2019-03-27T18:25:34.723Z,5.45
2019-03-27T18:28:03.633Z,6.40
2019-03-27T18:30:32.528Z,7.25
2019-03-27T18:33:01.448Z,5.83
2019-03-27T18:35:30.458Z,6.00
2019-03-27T18:37:59.363Z,6.12
2019-03-27T18:40:28.356Z,6.58
2019-03-27T18:42:57.284Z,7.70
2019-03-27T18:45:26.303Z,8.53
2019-03-27T18:47:55.200Z,10.32
2019-03-27T18:50:24.108Z,10.35
2019-03-27T18:52:53.017Z,11.22
2019-03-27T18:55:26.709Z,12.70
2019-03-27T18:58:00.200Z,13.25
2019-03-27T19:00:23.898Z,12.63
2019-03-27T19:02:53.050Z,12.00
2019-03-27T19:05:21.955Z,11.93
2019-03-27T19:07:50.967Z,10.88
2019-03-27T19:10:19.874Z,12.23
2019-03-27T19:12:48.781Z,11.28
2019-03-27T19:15:17.693Z,11.55
2019-03-27T19:17:46.585Z,12.25
2019-03-27T19:20:15.424Z,12.95
2019-03-27T19:22:44.414Z,12.03
2019-03-27T19:25:13.319Z,12.58
2019-03-27T19:27:42.329Z,12.28
2019-03-27T19:30:11.646Z,12.37
2019-03-27T19:32:40.665Z,12.55
2019-03-27T19:35:09.564Z,12.98
2019-03-27T19:37:38.575Z,11.95
2019-03-27T19:40:07.593Z,13.50
2019-03-27T19:42:36.601Z,13.15
2019-03-27T19:45:07.288Z,13.32
2019-03-27T19:47:36.443Z,14.25
2019-03-27T19:50:07.115Z,14.13
2019-03-27T19:52:36.120Z,15.50
2019-03-27T19:55:05.769Z,15.40
2019-03-27T19:57:34.751Z,17.40
2019-03-27T20:00:05.502Z,17.92
2019-03-27T20:02:34.509Z,19.27
2019-03-27T20:05:03.355Z,16.93
2019-03-27T20:07:36.252Z,15.93
2019-03-27T20:10:02.879Z,14.60
2019-03-27T20:12:31.880Z,15.05
2019-03-27T20:15:11.686Z,14.68
2019-03-27T20:17:32.873Z,15.00
2019-03-27T20:20:01.779Z,13.85
2019-03-27T20:22:30.788Z,14.20
2019-03-27T20:24:59.625Z,13.48
2019-03-27T20:27:28.606Z,14.80
2019-03-27T20:29:57.613Z,15.35
2019-03-27T20:32:26.522Z,14.40
2019-03-27T20:34:55.430Z,15.32
2019-03-27T20:37:24.540Z,16.02
2019-03-27T20:39:53.447Z,15.98
2019-03-27T20:42:22.457Z,16.77
2019-03-27T20:44:51.366Z,16.20
2019-03-27T20:47:20.375Z,17.02
2019-03-27T20:49:49.284Z,16.73
2019-03-27T20:52:18.196Z,16.12
2019-03-27T20:54:54.899Z,16.55
2019-03-27T20:57:17.647Z,16.60
2019-03-27T20:59:46.552Z,15.75
2019-03-27T21:02:15.768Z,15.30
2019-03-27T21:04:44.674Z,15.05
2019-03-27T21:07:13.685Z,14.45
2019-03-27T21:09:42.593Z,15.63
2019-03-27T21:12:11.609Z,16.05
2019-03-27T21:14:41.467Z,14.75
2019-03-27T21:17:10.646Z,14.93
2019-03-27T21:19:39.555Z,13.15
2019-03-27T21:22:08.464Z,12.90
2019-03-27T21:24:37.368Z,13.68
2019-03-27T21:27:06.387Z,14.05
2019-03-27T21:29:35.289Z,14.13
2019-03-27T21:32:04.176Z,13.70
2019-03-27T21:34:33.101Z,14.20
2019-03-27T21:37:02.203Z,14.10
2019-03-27T21:39:31.333Z,14.30
2019-03-27T21:42:00.205Z,12.53
2019-03-27T21:44:35.289Z,12.28
2019-03-27T21:47:04.196Z,11.78
2019-03-27T21:49:33.206Z,12.03
2019-03-27T21:52:02.318Z,11.95
2019-03-27T21:54:31.331Z,11.60
2019-03-27T21:57:00.339Z,12.03
2019-03-27T21:59:29.250Z,12.35
2019-03-27T22:01:58.265Z,11.88
2019-03-27T22:04:27.377Z,12.47
2019-03-27T22:06:56.380Z,12.60
2019-03-27T22:09:25.399Z,12.55
2019-03-27T22:11:54.399Z,12.20
2019-03-27T22:14:23.315Z,11.68
2019-03-27T22:16:52.425Z,11.68
2019-03-27T22:19:22.454Z,11.03
2019-03-27T22:21:51.361Z,11.22
2019-03-27T22:24:20.268Z,11.18
2019-03-27T22:26:49.279Z,11.73
2019-03-27T22:29:18.291Z,11.40
2019-03-27T22:31:47.300Z,11.25
2019-03-27T22:34:16.301Z,12.33
2019-03-27T22:36:45.320Z,13.08
2019-03-27T22:39:14.329Z,11.83
2019-03-27T22:41:43.350Z,11.63
2019-03-27T22:44:12.349Z,11.12
2019-03-27T22:46:41.363Z,11.73
2019-03-27T22:49:10.362Z,10.53
2019-03-27T22:51:39.277Z,9.53
2019-03-27T22:54:08.389Z,9.88
2019-03-27T22:56:37.419Z,9.25
2019-03-27T22:59:06.409Z,9.40
2019-03-27T23:01:44.060Z,8.45
2019-03-27T23:04:13.232Z,9.03
2019-03-27T23:06:42.139Z,8.43
2019-03-27T23:09:11.152Z,7.87
2019-03-27T23:11:40.063Z,8.50
2019-03-27T23:14:09.171Z,9.43
2019-03-27T23:16:38.182Z,9.70
2019-03-27T23:19:07.232Z,8.68
2019-03-27T23:21:36.295Z,8.25
2019-03-27T23:24:05.315Z,8.53
2019-03-27T23:26:34.212Z,8.70
2019-03-27T23:29:03.230Z,7.42
2019-03-27T23:31:32.148Z,7.67
2019-03-27T23:34:01.148Z,8.28
2019-03-27T23:36:30.260Z,8.65
2019-03-27T23:38:59.272Z,8.78
2019-03-27T23:41:28.281Z,7.90
2019-03-27T23:43:57.803Z,7.78
2019-03-27T23:46:26.816Z,8.30
2019-03-27T23:48:55.929Z,7.10
2019-03-27T23:51:24.926Z,8.00
2019-03-27T23:53:53.945Z,7.55
2019-03-27T23:56:23.175Z,7.00
2019-03-27T23:58:53.041Z,7.33
